Time;durP1;ratioP1;P1;durP2;ratioP2;P2;SDS_P1;SDS_P2;PMS_P1;PMS_P2;Temp;Humidity;BMP_temperature;BMP_pressure;BME280_temperature;BME280_humidity;BME280_pressure;Samples;Min_cycle;Max_cycle;Signal;HPM_P1;HPM_P2
2023/05/25 00:00:19;;;;;;;27.90;25.70;;;;;;;;;;5041791;28;20467;-79
2023/05/25 00:02:46;;;;;;;28.77;26.10;;;;;;;;;;5041484;28;20869;-79
2023/05/25 00:05:14;;;;;;;28.30;25.87;;;;;;;;;;5041822;28;20513;-79
2023/05/25 00:07:41;;;;;;;27.03;24.53;;;;;;;;;;5041276;28;20471;-78
2023/05/25 00:10:08;;;;;;;30.03;27.33;;;;;;;;;;5041595;28;20467;-79
2023/05/25 00:12:36;;;;;;;28.80;26.10;;;;;;;;;;5041755;28;20513;-79
2023/05/25 00:15:04;;;;;;;28.67;26.20;;;;;;;;;;5040587;28;20448;-79
2023/05/25 00:17:32;;;;;;;27.70;25.37;;;;;;;;;;5040479;28;20489;-79
2023/05/25 00:20:07;;;;;;;27.40;25.20;;;;;;;;;;5040596;28;20450;-79
2023/05/25 00:22:34;;;;;;;27.33;25.43;;;;;;;;;;5040434;28;20779;-79
2023/05/25 00:25:01;;;;;;;27.43;25.27;;;;;;;;;;5041158;28;20891;-81
2023/05/25 00:27:28;;;;;;;27.23;24.90;;;;;;;;;;5040630;28;20449;-80
2023/05/25 00:29:57;;;;;;;26.73;24.73;;;;;;;;;;5040903;28;20423;-80
2023/05/25 00:32:24;;;;;;;27.07;25.03;;;;;;;;;;5040389;28;20451;-79
2023/05/25 00:34:51;;;;;;;28.97;26.47;;;;;;;;;;5040236;28;20526;-79
2023/05/25 00:37:18;;;;;;;27.70;25.50;;;;;;;;;;5039586;28;20451;-80
2023/05/25 00:39:45;;;;;;;27.47;25.30;;;;;;;;;;5041339;28;20442;-81
2023/05/25 00:42:12;;;;;;;27.13;25.03;;;;;;;;;;5045049;28;20475;-81
2023/05/25 00:44:39;;;;;;;26.60;24.90;;;;;;;;;;5045177;28;20462;-81
2023/05/25 00:47:08;;;;;;;28.87;26.57;;;;;;;;;;5045020;28;20422;-81
2023/05/25 00:49:36;;;;;;;28.67;26.27;;;;;;;;;;5044864;28;20459;-80
2023/05/25 00:52:03;;;;;;;27.00;24.90;;;;;;;;;;5044501;28;20451;-81
2023/05/25 00:54:32;;;;;;;28.13;25.77;;;;;;;;;;5044206;28;20517;-80
2023/05/25 00:57:02;;;;;;;27.90;25.23;;;;;;;;;;5043508;28;20458;-80
2023/05/25 00:59:34;;;;;;;26.80;24.30;;;;;;;;;;5043734;28;20477;-80
2023/05/25 01:02:03;;;;;;;27.10;24.90;;;;;;;;;;5044093;28;20459;-80
2023/05/25 01:04:34;;;;;;;26.60;24.50;;;;;;;;;;5044006;28;20574;-80
2023/05/25 01:07:03;;;;;;;27.13;24.90;;;;;;;;;;5042009;28;20430;-80
2023/05/25 01:09:33;;;;;;;26.70;24.70;;;;;;;;;;5042979;28;20956;-80
2023/05/25 01:12:01;;;;;;;26.63;24.63;;;;;;;;;;5042888;28;20422;-80
2023/05/25 01:14:28;;;;;;;26.20;24.27;;;;;;;;;;5043051;28;20444;-80
2023/05/25 01:16:55;;;;;;;26.15;24.25;;;;;;;;;;5041856;28;20438;-80
2023/05/25 01:19:22;;;;;;;24.87;23.07;;;;;;;;;;5042733;28;20236;-80
2023/05/25 01:21:53;;;;;;;26.90;24.80;;;;;;;;;;5041559;28;20451;-80
2023/05/25 01:24:24;;;;;;;26.60;24.20;;;;;;;;;;5041090;28;20609;-80
2023/05/25 01:26:55;;;;;;;28.63;26.23;;;;;;;;;;5041255;28;20946;-80
2023/05/25 01:29:24;;;;;;;26.50;24.40;;;;;;;;;;5042161;28;20480;-80
2023/05/25 01:31:52;;;;;;;25.83;23.73;;;;;;;;;;5055681;28;20855;-78
2023/05/25 01:34:19;;;;;;;26.57;24.57;;;;;;;;;;5059448;28;20216;-79
2023/05/25 01:36:46;;;;;;;27.23;25.05;;;;;;;;;;5058375;28;20440;-80
2023/05/25 01:39:14;;;;;;;27.57;25.40;;;;;;;;;;5043244;28;20255;-80
2023/05/25 01:41:41;;;;;;;27.03;24.50;;;;;;;;;;5042768;28;20463;-79
2023/05/25 01:44:09;;;;;;;28.00;25.45;;;;;;;;;;5042710;28;20447;-80
2023/05/25 01:46:37;;;;;;;27.30;24.90;;;;;;;;;;5041929;28;20270;-81
2023/05/25 01:49:09;;;;;;;27.63;25.45;;;;;;;;;;5042318;28;20513;-80
2023/05/25 01:51:39;;;;;;;28.50;26.13;;;;;;;;;;5041908;28;20200;-79
2023/05/25 01:54:09;;;;;;;27.67;25.10;;;;;;;;;;5041529;28;20455;-79
2023/05/25 01:56:38;;;;;;;27.33;25.08;;;;;;;;;;5041142;28;20418;-79
2023/05/25 01:59:06;;;;;;;26.30;23.80;;;;;;;;;;5041170;28;20208;-79
2023/05/25 02:01:35;;;;;;;27.30;24.87;;;;;;;;;;5041321;28;20447;-79
2023/05/25 02:04:02;;;;;;;26.40;24.27;;;;;;;;;;5041203;28;20445;-80
2023/05/25 02:06:29;;;;;;;28.57;26.07;;;;;;;;;;5040434;28;20890;-80
2023/05/25 02:08:56;;;;;;;26.83;24.87;;;;;;;;;;5040554;28;20422;-79
2023/05/25 02:11:23;;;;;;;27.17;25.00;;;;;;;;;;5040901;28;20510;-79
2023/05/25 02:13:52;;;;;;;27.20;25.00;;;;;;;;;;5040886;28;20936;-80
2023/05/25 02:16:19;;;;;;;26.97;25.00;;;;;;;;;;5039752;28;20870;-79
2023/05/25 02:18:46;;;;;;;25.90;24.10;;;;;;;;;;5039878;28;20452;-79
2023/05/25 02:21:13;;;;;;;25.97;24.30;;;;;;;;;;5040093;28;20442;-79
2023/05/25 02:23:40;;;;;;;29.77;27.17;;;;;;;;;;5039609;28;20443;-80
2023/05/25 02:26:06;;;;;;;26.48;24.30;;;;;;;;;;5039254;28;20475;-80
2023/05/25 02:28:33;;;;;;;27.03;24.57;;;;;;;;;;5039556;28;20208;-80
2023/05/25 02:31:02;;;;;;;26.23;24.20;;;;;;;;;;5039175;28;20604;-79
2023/05/25 02:33:29;;;;;;;29.05;26.50;;;;;;;;;;5039609;28;20422;-79
2023/05/25 02:35:56;;;;;;;29.00;26.70;;;;;;;;;;5038749;28;20604;-79
2023/05/25 02:38:23;;;;;;;27.93;25.80;;;;;;;;;;5038992;28;20462;-80
2023/05/25 02:40:50;;;;;;;26.93;24.43;;;;;;;;;;5039057;28;20463;-80
2023/05/25 02:43:17;;;;;;;27.90;25.45;;;;;;;;;;5038614;28;20976;-80
2023/05/25 02:45:44;;;;;;;27.90;25.77;;;;;;;;;;5038566;28;20298;-80
2023/05/25 02:48:12;;;;;;;25.65;23.63;;;;;;;;;;5038804;28;20205;-79
2023/05/25 02:50:39;;;;;;;26.75;24.42;;;;;;;;;;5040205;28;20225;-79
2023/05/25 02:53:06;;;;;;;25.70;23.70;;;;;;;;;;5039015;28;20193;-83
2023/05/25 02:55:33;;;;;;;27.33;24.95;;;;;;;;;;5037896;28;20208;-80
2023/05/25 02:58:00;;;;;;;26.05;24.15;;;;;;;;;;5038007;28;20209;-79
2023/05/25 03:00:27;;;;;;;25.98;23.95;;;;;;;;;;5037380;28;20225;-79
2023/05/25 03:02:54;;;;;;;25.80;24.00;;;;;;;;;;5038017;28;20614;-80
2023/05/25 03:05:22;;;;;;;27.17;24.83;;;;;;;;;;5038546;28;20588;-80
2023/05/25 03:07:49;;;;;;;26.83;24.88;;;;;;;;;;5037560;28;20205;-81
2023/05/25 03:10:17;;;;;;;26.40;24.10;;;;;;;;;;5037710;28;20252;-81
2023/05/25 03:12:44;;;;;;;26.23;24.30;;;;;;;;;;5038007;28;20193;-79
2023/05/25 03:15:12;;;;;;;26.13;23.90;;;;;;;;;;5038644;28;20480;-79
2023/05/25 03:17:39;;;;;;;27.30;24.75;;;;;;;;;;5037572;28;20426;-78
2023/05/25 03:20:09;;;;;;;26.60;24.53;;;;;;;;;;5038386;28;20283;-79
2023/05/25 03:22:37;;;;;;;27.10;24.80;;;;;;;;;;5038424;28;20479;-77
2023/05/25 03:25:04;;;;;;;27.80;25.13;;;;;;;;;;5035247;28;20462;-79
2023/05/25 03:27:31;;;;;;;25.50;23.63;;;;;;;;;;5033004;28;20430;-77
2023/05/25 03:29:58;;;;;;;26.20;24.30;;;;;;;;;;5033083;28;20279;-76
2023/05/25 03:32:25;;;;;;;27.27;25.05;;;;;;;;;;5033230;28;20235;-76
2023/05/25 03:34:52;;;;;;;27.17;24.77;;;;;;;;;;5033213;28;20258;-76
2023/05/25 03:37:19;;;;;;;27.17;25.17;;;;;;;;;;5032575;28;20259;-77
2023/05/25 03:39:49;;;;;;;27.92;25.70;;;;;;;;;;5032983;28;20475;-76
2023/05/25 03:42:15;;;;;;;26.75;24.30;;;;;;;;;;5032711;28;20247;-77
2023/05/25 03:44:42;;;;;;;28.42;26.33;;;;;;;;;;5033313;28;20216;-77
2023/05/25 03:47:10;;;;;;;26.55;24.55;;;;;;;;;;5032597;28;20209;-77
2023/05/25 03:49:37;;;;;;;26.92;24.80;;;;;;;;;;5033072;28;20225;-77
2023/05/25 03:52:05;;;;;;;26.52;24.33;;;;;;;;;;5032879;28;20205;-76
2023/05/25 03:54:32;;;;;;;27.08;24.88;;;;;;;;;;5033484;28;20296;-76
2023/05/25 03:57:02;;;;;;;26.52;24.20;;;;;;;;;;5032580;28;20205;-76
2023/05/25 03:59:29;;;;;;;26.67;24.67;;;;;;;;;;5033002;28;20568;-76
2023/05/25 04:01:56;;;;;;;27.52;25.05;;;;;;;;;;5033233;28;20205;-76
2023/05/25 04:04:23;;;;;;;25.73;23.52;;;;;;;;;;5033141;28;20205;-76
2023/05/25 04:06:50;;;;;;;27.53;25.30;;;;;;;;;;5032413;28;20225;-77
2023/05/25 04:09:18;;;;;;;27.20;25.10;;;;;;;;;;5033068;28;20482;-76
2023/05/25 04:11:45;;;;;;;26.40;24.00;;;;;;;;;;5033048;28;20444;-77
2023/05/25 04:14:13;;;;;;;27.58;25.30;;;;;;;;;;5033102;28;20304;-76
2023/05/25 04:16:40;;;;;;;27.87;25.50;;;;;;;;;;5032329;28;20205;-76
2023/05/25 04:19:07;;;;;;;25.33;23.43;;;;;;;;;;5032983;28;20457;-77
2023/05/25 04:21:35;;;;;;;26.33;24.25;;;;;;;;;;5031799;28;21006;-76
2023/05/25 04:24:02;;;;;;;26.70;24.83;;;;;;;;;;5036853;28;20197;-77
2023/05/25 04:26:29;;;;;;;25.15;23.27;;;;;;;;;;5033980;28;20503;-76
2023/05/25 04:29:00;;;;;;;25.48;23.67;;;;;;;;;;5032821;28;20235;-77
2023/05/25 04:31:29;;;;;;;27.73;25.65;;;;;;;;;;5033104;28;20192;-76
2023/05/25 04:33:57;;;;;;;26.27;24.38;;;;;;;;;;5032982;28;20278;-77
2023/05/25 04:36:24;;;;;;;28.00;25.98;;;;;;;;;;5032305;28;20535;-76
2023/05/25 04:38:53;;;;;;;27.02;24.90;;;;;;;;;;5032462;28;20259;-77
2023/05/25 04:41:20;;;;;;;26.85;24.63;;;;;;;;;;5032785;28;20213;-77
2023/05/25 04:43:49;;;;;;;25.95;24.10;;;;;;;;;;5036493;28;20223;-76
2023/05/25 04:46:16;;;;;;;27.30;24.90;;;;;;;;;;5036193;28;20228;-77
2023/05/25 04:48:45;;;;;;;25.73;23.67;;;;;;;;;;5036257;28;20860;-77
2023/05/25 04:51:12;;;;;;;27.48;25.35;;;;;;;;;;5036148;28;20225;-76
2023/05/25 04:53:39;;;;;;;28.50;26.10;;;;;;;;;;5036475;28;20208;-76
2023/05/25 04:56:06;;;;;;;28.20;26.00;;;;;;;;;;5035635;28;20247;-76
2023/05/25 04:58:33;;;;;;;26.40;24.13;;;;;;;;;;5036241;28;20451;-77
2023/05/25 05:01:00;;;;;;;27.58;25.38;;;;;;;;;;5035620;28;20221;-78
2023/05/25 05:03:27;;;;;;;27.60;25.00;;;;;;;;;;5036192;28;20209;-77
2023/05/25 05:05:56;;;;;;;28.17;26.10;;;;;;;;;;5035448;28;20271;-77
2023/05/25 05:08:23;;;;;;;29.58;27.08;;;;;;;;;;5036066;28;20255;-77
2023/05/25 05:10:50;;;;;;;28.90;26.50;;;;;;;;;;5036159;28;20232;-77
2023/05/25 05:13:17;;;;;;;30.70;27.80;;;;;;;;;;5034943;28;20789;-77
2023/05/25 05:15:44;;;;;;;32.15;29.65;;;;;;;;;;5035500;28;20270;-76
2023/05/25 05:18:12;;;;;;;32.63;29.73;;;;;;;;;;5035078;28;20209;-78
2023/05/25 05:20:39;;;;;;;33.00;29.47;;;;;;;;;;5035942;28;20593;-77
2023/05/25 05:23:08;;;;;;;33.17;29.83;;;;;;;;;;5035735;28;20505;-77
2023/05/25 05:25:36;;;;;;;29.43;27.17;;;;;;;;;;5035301;28;20487;-77
2023/05/25 05:28:03;;;;;;;30.58;27.65;;;;;;;;;;5036021;28;20542;-77
2023/05/25 05:30:30;;;;;;;30.47;27.97;;;;;;;;;;5035896;28;20283;-77
2023/05/25 05:32:57;;;;;;;28.80;26.50;;;;;;;;;;5035644;28;20809;-78
2023/05/25 05:35:24;;;;;;;31.27;28.40;;;;;;;;;;5035566;28;20810;-77
2023/05/25 05:37:51;;;;;;;29.90;26.90;;;;;;;;;;5035273;28;20497;-77
2023/05/25 05:40:20;;;;;;;31.90;28.87;;;;;;;;;;5035568;28;20476;-77
2023/05/25 05:42:47;;;;;;;30.93;27.70;;;;;;;;;;5035778;28;20413;-77
2023/05/25 05:45:13;;;;;;;31.17;27.97;;;;;;;;;;5036789;28;20594;-76
2023/05/25 05:47:40;;;;;;;29.23;26.83;;;;;;;;;;5034439;28;21052;-77
2023/05/25 05:50:08;;;;;;;27.63;25.47;;;;;;;;;;5035030;28;20854;-77
2023/05/25 05:52:35;;;;;;;29.03;26.50;;;;;;;;;;5035540;28;20928;-77
2023/05/25 05:55:02;;;;;;;27.67;25.20;;;;;;;;;;5041993;28;20436;-78
2023/05/25 05:57:30;;;;;;;27.30;25.03;;;;;;;;;;5044176;28;20444;-78
2023/05/25 05:59:57;;;;;;;28.07;25.57;;;;;;;;;;5043734;28;20491;-78
2023/05/25 06:02:24;;;;;;;28.60;25.90;;;;;;;;;;5039481;28;20509;-78
2023/05/25 06:04:51;;;;;;;30.03;27.87;;;;;;;;;;5035915;28;20444;-76
2023/05/25 06:07:18;;;;;;;28.47;26.20;;;;;;;;;;5035293;28;20487;-76
2023/05/25 06:09:45;;;;;;;27.33;25.20;;;;;;;;;;5035780;28;20490;-77
2023/05/25 06:12:12;;;;;;;29.23;24.90;;;;;;;;;;5038442;28;20423;-77
2023/05/25 06:14:40;;;;;;;27.83;25.47;;;;;;;;;;5036967;28;20463;-76
2023/05/25 06:17:07;;;;;;;29.20;26.67;;;;;;;;;;5035459;28;20451;-77
2023/05/25 06:19:34;;;;;;;27.93;25.37;;;;;;;;;;5034111;28;20479;-77
2023/05/25 06:22:01;;;;;;;28.87;26.47;;;;;;;;;;5034686;28;20479;-77
2023/05/25 06:24:30;;;;;;;28.00;25.57;;;;;;;;;;5034480;28;20426;-76
2023/05/25 06:26:57;;;;;;;28.53;25.87;;;;;;;;;;5033259;28;21014;-77
2023/05/25 06:29:24;;;;;;;28.73;26.33;;;;;;;;;;5033663;28;20562;-76
2023/05/25 06:31:52;;;;;;;27.97;25.57;;;;;;;;;;5034887;28;20506;-78
2023/05/25 06:34:19;;;;;;;28.50;26.03;;;;;;;;;;5034186;28;20463;-77
2023/05/25 06:36:46;;;;;;;27.70;25.40;;;;;;;;;;5034856;28;20496;-79
2023/05/25 06:39:13;;;;;;;27.93;25.70;;;;;;;;;;5035008;28;20507;-76
2023/05/25 06:41:40;;;;;;;27.87;25.60;;;;;;;;;;5033335;28;20871;-76
2023/05/25 06:44:07;;;;;;;28.80;26.00;;;;;;;;;;5034488;28;20485;-76
2023/05/25 06:46:35;;;;;;;28.60;26.20;;;;;;;;;;5035629;28;20541;-79
2023/05/25 06:49:03;;;;;;;28.23;26.00;;;;;;;;;;5036277;28;20520;-78
2023/05/25 06:51:32;;;;;;;27.60;25.40;;;;;;;;;;5034463;28;20477;-80
2023/05/25 06:53:59;;;;;;;32.00;29.33;;;;;;;;;;5040140;28;20817;-82
2023/05/25 06:56:26;;;;;;;28.27;25.70;;;;;;;;;;5038207;28;20460;-82
2023/05/25 06:58:53;;;;;;;29.00;26.57;;;;;;;;;;5039309;28;20851;-82
2023/05/25 07:01:20;;;;;;;29.07;26.60;;;;;;;;;;5038297;28;20451;-77
2023/05/25 07:03:47;;;;;;;32.10;28.77;;;;;;;;;;5036496;28;20443;-81
2023/05/25 07:06:16;;;;;;;29.57;26.97;;;;;;;;;;5037507;28;20515;-82
2023/05/25 07:08:43;;;;;;;29.37;26.87;;;;;;;;;;5038932;28;20447;-83
2023/05/25 07:11:12;;;;;;;31.23;28.70;;;;;;;;;;5050527;28;20505;-83
2023/05/25 07:13:39;;;;;;;29.43;26.87;;;;;;;;;;5060931;28;20422;-83
2023/05/25 07:16:07;;;;;;;31.80;28.43;;;;;;;;;;5060157;28;20433;-81
2023/05/25 07:18:34;;;;;;;30.37;27.93;;;;;;;;;;5058119;28;20467;-78
2023/05/25 07:21:01;;;;;;;30.37;27.50;;;;;;;;;;5058137;28;20880;-79
2023/05/25 07:23:30;;;;;;;29.27;26.93;;;;;;;;;;5057045;28;20443;-82
2023/05/25 07:25:57;;;;;;;29.30;26.70;;;;;;;;;;5055537;28;20955;-82
2023/05/25 07:28:24;;;;;;;30.30;27.83;;;;;;;;;;5046245;28;20425;-82
2023/05/25 07:30:51;;;;;;;29.87;27.50;;;;;;;;;;5056875;28;21123;-82
2023/05/25 07:33:18;;;;;;;30.60;28.00;;;;;;;;;;5040110;28;20498;-77
2023/05/25 07:35:45;;;;;;;30.33;27.50;;;;;;;;;;5035768;28;20430;-80
2023/05/25 07:38:12;;;;;;;28.80;26.30;;;;;;;;;;5039844;28;20434;-81
2023/05/25 07:40:41;;;;;;;31.07;28.53;;;;;;;;;;5039512;28;20471;-81
2023/05/25 07:43:08;;;;;;;30.60;27.93;;;;;;;;;;5047066;28;20448;-82
2023/05/25 07:45:35;;;;;;;29.47;27.00;;;;;;;;;;5080021;28;20432;-82
2023/05/25 07:48:05;;;;;;;27.93;25.57;;;;;;;;;;5079168;28;20798;-79
2023/05/25 07:50:32;;;;;;;29.37;26.60;;;;;;;;;;5078948;28;20448;-81
2023/05/25 07:52:59;;;;;;;29.73;27.33;;;;;;;;;;5077147;28;20412;-77
2023/05/25 07:55:26;;;;;;;27.70;25.70;;;;;;;;;;5076402;28;20439;-76
2023/05/25 07:57:55;;;;;;;29.80;27.30;;;;;;;;;;5074592;28;20477;-84
2023/05/25 08:00:22;;;;;;;29.13;26.47;;;;;;;;;;5078181;28;20465;-84
2023/05/25 08:02:49;;;;;;;29.57;26.87;;;;;;;;;;5078301;28;20454;-84
2023/05/25 08:05:16;;;;;;;28.73;26.57;;;;;;;;;;5078064;28;20513;-85
2023/05/25 08:07:43;;;;;;;29.80;27.17;;;;;;;;;;5073756;28;20908;-76
2023/05/25 08:10:10;;;;;;;31.07;28.53;;;;;;;;;;5072179;28;20531;-76
2023/05/25 08:12:37;;;;;;;29.70;27.10;;;;;;;;;;5072742;28;20450;-76
2023/05/25 08:15:06;;;;;;;29.57;27.00;;;;;;;;;;5072442;28;20937;-76
2023/05/25 08:17:34;;;;;;;28.80;26.50;;;;;;;;;;5076175;28;20518;-76
2023/05/25 08:20:01;;;;;;;28.47;26.23;;;;;;;;;;5076792;28;20465;-76
2023/05/25 08:22:28;;;;;;;28.23;26.03;;;;;;;;;;5076490;28;20446;-76
2023/05/25 08:24:55;;;;;;;28.97;26.60;;;;;;;;;;5076701;28;20424;-77
2023/05/25 08:27:22;;;;;;;29.53;26.80;;;;;;;;;;5075380;28;20467;-76
2023/05/25 08:29:49;;;;;;;27.47;25.37;;;;;;;;;;5078245;28;20944;-77
2023/05/25 08:32:17;;;;;;;28.60;26.03;;;;;;;;;;5077227;28;20449;-77
2023/05/25 08:34:44;;;;;;;26.90;25.10;;;;;;;;;;5077520;28;20808;-81
2023/05/25 08:37:11;;;;;;;27.57;25.60;;;;;;;;;;5076258;28;20494;-76
2023/05/25 08:39:38;;;;;;;27.80;25.70;;;;;;;;;;5080294;28;20461;-77
2023/05/25 08:42:06;;;;;;;27.07;24.97;;;;;;;;;;5077128;28;20450;-77
2023/05/25 08:44:33;;;;;;;29.47;26.90;;;;;;;;;;5076329;28;20445;-76
2023/05/25 08:47:05;;;;;;;29.83;27.57;;;;;;;;;;5075644;28;20451;-76
2023/05/25 08:49:35;;;;;;;29.30;26.70;;;;;;;;;;5076391;28;20512;-76
2023/05/25 08:52:02;;;;;;;27.70;25.70;;;;;;;;;;5076375;28;20461;-76
2023/05/25 08:54:30;;;;;;;28.87;26.87;;;;;;;;;;5078381;28;20468;-79
2023/05/25 08:57:12;;;;;;;28.73;26.37;;;;;;;;;;5081734;28;20468;-82
2023/05/25 08:59:43;;;;;;;28.33;25.97;;;;;;;;;;5081775;28;20448;-83
2023/05/25 09:02:16;;;;;;;30.97;28.53;;;;;;;;;;5081541;28;20438;-79
2023/05/25 09:04:45;;;;;;;29.30;26.90;;;;;;;;;;5079061;28;20491;-77
2023/05/25 09:07:12;;;;;;;29.67;27.03;;;;;;;;;;5082689;28;20546;-77
2023/05/25 09:09:41;;;;;;;29.63;27.37;;;;;;;;;;5080806;28;20440;-77
2023/05/25 09:12:08;;;;;;;28.30;26.20;;;;;;;;;;5081100;28;20480;-78
2023/05/25 09:14:38;;;;;;;29.87;27.60;;;;;;;;;;5079025;28;20428;-77
2023/05/25 09:17:06;;;;;;;27.10;25.10;;;;;;;;;;5078606;28;20967;-77
2023/05/25 09:19:36;;;;;;;28.80;26.50;;;;;;;;;;5080667;28;20473;-77
2023/05/25 09:22:04;;;;;;;29.67;27.27;;;;;;;;;;5081476;28;20462;-77
2023/05/25 09:24:32;;;;;;;29.07;26.93;;;;;;;;;;5079485;28;20428;-78
2023/05/25 09:26:59;;;;;;;27.67;25.67;;;;;;;;;;5073596;28;20570;-82
2023/05/25 09:29:27;;;;;;;28.70;26.60;;;;;;;;;;5037639;28;20927;-77
2023/05/25 09:31:54;;;;;;;27.37;25.27;;;;;;;;;;5038237;28;20477;-78
2023/05/25 09:34:21;;;;;;;29.53;26.50;;;;;;;;;;5037336;28;20480;-77
2023/05/25 09:36:48;;;;;;;29.20;26.90;;;;;;;;;;5036002;28;20467;-77
2023/05/25 09:39:17;;;;;;;29.57;26.80;;;;;;;;;;5036831;28;20483;-77
2023/05/25 09:41:44;;;;;;;29.47;26.63;;;;;;;;;;5036204;28;20431;-77
2023/05/25 09:44:11;;;;;;;27.93;25.77;;;;;;;;;;5035809;28;21312;-77
2023/05/25 09:46:39;;;;;;;27.97;25.87;;;;;;;;;;5038344;28;20448;-84
2023/05/25 09:49:08;;;;;;;31.17;27.10;;;;;;;;;;5038343;28;20457;-83
2023/05/25 09:51:36;;;;;;;26.67;24.83;;;;;;;;;;5040720;28;20434;-79
2023/05/25 09:54:03;;;;;;;28.10;25.37;;;;;;;;;;5040432;28;20427;-80
2023/05/25 09:56:32;;;;;;;27.77;25.57;;;;;;;;;;5038438;28;20501;-81
2023/05/25 09:59:00;;;;;;;27.20;25.33;;;;;;;;;;5039318;28;20475;-81
2023/05/25 10:01:27;;;;;;;27.60;25.50;;;;;;;;;;5041072;28;20418;-79
2023/05/25 10:03:58;;;;;;;27.50;25.20;;;;;;;;;;5040570;28;20429;-76
2023/05/25 10:06:25;;;;;;;27.97;26.07;;;;;;;;;;5036364;28;20422;-76
2023/05/25 10:08:55;;;;;;;28.03;25.53;;;;;;;;;;5039157;28;20600;-83
2023/05/25 10:11:22;;;;;;;26.53;24.50;;;;;;;;;;5040946;28;20901;-79
2023/05/25 10:13:51;;;;;;;27.27;25.47;;;;;;;;;;5038115;28;20447;-79
2023/05/25 10:16:18;;;;;;;27.50;25.50;;;;;;;;;;5037307;28;20426;-77
2023/05/25 10:18:48;;;;;;;28.70;26.20;;;;;;;;;;5040147;28;20455;-78
2023/05/25 10:21:17;;;;;;;28.60;26.00;;;;;;;;;;5050459;28;20492;-80
2023/05/25 10:23:46;;;;;;;27.43;25.10;;;;;;;;;;5067101;28;20479;-79
2023/05/25 10:26:14;;;;;;;28.97;26.57;;;;;;;;;;5065087;28;20519;-77
2023/05/25 10:28:41;;;;;;;29.53;27.33;;;;;;;;;;5059959;28;20892;-77
2023/05/25 10:31:10;;;;;;;29.80;27.40;;;;;;;;;;5057217;28;20496;-76
2023/05/25 10:33:37;;;;;;;31.27;28.47;;;;;;;;;;5061142;28;20460;-77
2023/05/25 10:36:04;;;;;;;30.93;28.30;;;;;;;;;;5059736;28;20473;-77
2023/05/25 10:38:32;;;;;;;30.70;27.97;;;;;;;;;;5059149;28;20800;-81
2023/05/25 10:41:00;;;;;;;31.30;28.70;;;;;;;;;;5057759;28;20437;-83
2023/05/25 10:43:27;;;;;;;31.07;28.10;;;;;;;;;;5058170;28;20429;-78
2023/05/25 10:45:54;;;;;;;30.50;28.10;;;;;;;;;;5062163;28;20431;-78
2023/05/25 10:48:22;;;;;;;30.37;28.13;;;;;;;;;;5065623;28;20507;-75
2023/05/25 10:50:50;;;;;;;31.13;28.17;;;;;;;;;;5066267;28;20475;-78
2023/05/25 10:53:19;;;;;;;28.70;26.40;;;;;;;;;;5069538;28;20489;-79
2023/05/25 10:55:49;;;;;;;32.17;29.13;;;;;;;;;;5060422;28;20820;-77
2023/05/25 10:58:17;;;;;;;30.23;27.60;;;;;;;;;;5056985;28;20448;-79
2023/05/25 11:00:44;;;;;;;30.43;27.70;;;;;;;;;;5055467;28;20492;-77
2023/05/25 11:03:11;;;;;;;29.60;27.37;;;;;;;;;;5054303;28;20429;-76
2023/05/25 11:05:40;;;;;;;29.53;26.93;;;;;;;;;;5053616;28;20435;-77
2023/05/25 11:08:08;;;;;;;29.73;27.50;;;;;;;;;;5056000;28;20471;-78
2023/05/25 11:10:42;;;;;;;30.23;27.27;;;;;;;;;;5057940;28;21033;-78
2023/05/25 11:13:21;;;;;;;27.30;25.30;;;;;;;;;;5056462;28;20439;-78
2023/05/25 11:15:48;;;;;;;28.80;26.40;;;;;;;;;;5058490;28;20456;-77
2023/05/25 11:18:15;;;;;;;29.87;27.63;;;;;;;;;;5055211;28;20898;-77
2023/05/25 11:20:44;;;;;;;30.13;27.87;;;;;;;;;;5054386;28;20924;-78
2023/05/25 11:23:23;;;;;;;28.97;26.90;;;;;;;;;;5056050;28;20430;-77
2023/05/25 11:25:49;;;;;;;29.10;26.67;;;;;;;;;;5057024;28;20469;-79
2023/05/25 11:28:16;;;;;;;28.53;26.07;;;;;;;;;;5055814;28;20461;-77
2023/05/25 11:30:43;;;;;;;27.77;25.50;;;;;;;;;;5055739;28;20499;-77
2023/05/25 11:33:10;;;;;;;29.20;26.90;;;;;;;;;;5055233;28;20430;-77
2023/05/25 11:35:37;;;;;;;30.03;27.40;;;;;;;;;;5054462;28;20522;-77
2023/05/25 11:38:06;;;;;;;28.20;26.13;;;;;;;;;;5054370;28;20512;-77
2023/05/25 11:40:33;;;;;;;29.57;27.27;;;;;;;;;;5054719;28;21014;-77
2023/05/25 11:43:01;;;;;;;28.00;25.73;;;;;;;;;;5056109;28;20855;-77
2023/05/25 11:45:33;;;;;;;28.17;26.07;;;;;;;;;;5054175;28;20422;-78
2023/05/25 11:48:00;;;;;;;29.53;27.20;;;;;;;;;;5055095;28;20483;-77
2023/05/25 11:50:28;;;;;;;28.90;26.90;;;;;;;;;;5053801;28;20474;-76
2023/05/25 11:52:55;;;;;;;29.87;27.50;;;;;;;;;;5053988;28;20460;-76
2023/05/25 11:55:23;;;;;;;28.60;26.40;;;;;;;;;;5054040;28;20447;-77
2023/05/25 11:57:56;;;;;;;29.80;27.50;;;;;;;;;;5055704;28;20857;-77
2023/05/25 12:00:27;;;;;;;28.53;26.43;;;;;;;;;;5053659;28;20467;-76
2023/05/25 12:02:54;;;;;;;26.67;24.87;;;;;;;;;;5053625;28;20802;-77
2023/05/25 12:05:22;;;;;;;27.60;25.53;;;;;;;;;;5055874;28;21197;-77
2023/05/25 12:07:49;;;;;;;28.20;26.00;;;;;;;;;;5053696;28;20559;-76
2023/05/25 12:10:16;;;;;;;27.20;25.10;;;;;;;;;;5053831;28;20457;-76
2023/05/25 12:12:45;;;;;;;25.83;24.23;;;;;;;;;;5052694;28;20442;-77
2023/05/25 12:15:13;;;;;;;25.90;24.10;;;;;;;;;;5054251;28;20469;-77
2023/05/25 12:17:44;;;;;;;27.67;25.67;;;;;;;;;;5053161;28;20517;-76
2023/05/25 12:20:12;;;;;;;28.30;25.70;;;;;;;;;;5053735;28;20521;-77
2023/05/25 12:22:40;;;;;;;27.63;25.53;;;;;;;;;;5053211;28;20445;-78
2023/05/25 12:25:07;;;;;;;26.83;24.90;;;;;;;;;;5058047;28;20462;-79
2023/05/25 12:27:35;;;;;;;27.57;25.33;;;;;;;;;;5053943;28;20468;-76
2023/05/25 12:30:04;;;;;;;28.33;26.17;;;;;;;;;;5053928;28;20474;-77
2023/05/25 12:32:31;;;;;;;26.57;24.77;;;;;;;;;;5053476;28;20471;-77
2023/05/25 12:35:04;;;;;;;26.03;24.13;;;;;;;;;;5053660;28;20455;-76
2023/05/25 12:37:31;;;;;;;26.20;24.33;;;;;;;;;;5053398;28;20435;-76
2023/05/25 12:39:59;;;;;;;26.80;24.50;;;;;;;;;;5056041;28;20441;-76
2023/05/25 12:42:26;;;;;;;26.80;24.60;;;;;;;;;;5054359;28;20419;-77
2023/05/25 12:44:56;;;;;;;27.17;25.17;;;;;;;;;;5054293;28;20452;-76
2023/05/25 12:47:27;;;;;;;26.23;24.50;;;;;;;;;;5054641;28;20446;-76
2023/05/25 12:49:55;;;;;;;27.03;24.93;;;;;;;;;;5052481;28;20487;-77
2023/05/25 12:52:35;;;;;;;26.43;24.37;;;;;;;;;;5055102;28;20431;-76
2023/05/25 12:55:17;;;;;;;25.33;23.60;;;;;;;;;;5034516;28;20423;-77
2023/05/25 12:57:45;;;;;;;26.20;24.20;;;;;;;;;;5034172;28;20453;-77
2023/05/25 13:00:13;;;;;;;26.87;24.63;;;;;;;;;;5034064;28;20488;-77
2023/05/25 13:02:44;;;;;;;25.90;24.00;;;;;;;;;;5034467;28;20436;-78
2023/05/25 13:05:17;;;;;;;26.10;24.50;;;;;;;;;;5051837;28;20459;-84
2023/05/25 13:07:45;;;;;;;26.40;24.40;;;;;;;;;;5061514;28;20489;-81
2023/05/25 13:10:13;;;;;;;25.60;23.40;;;;;;;;;;5059215;28;20516;-84
2023/05/25 13:12:40;;;;;;;25.43;23.67;;;;;;;;;;5045033;28;20488;-79
2023/05/25 13:15:08;;;;;;;25.80;24.07;;;;;;;;;;5042721;28;20457;-78
2023/05/25 13:17:35;;;;;;;25.80;23.80;;;;;;;;;;5040627;28;20431;-77
2023/05/25 13:20:04;;;;;;;25.57;23.63;;;;;;;;;;5038796;28;20452;-82
2023/05/25 13:22:31;;;;;;;25.80;24.00;;;;;;;;;;5045295;28;20466;-78
2023/05/25 13:24:58;;;;;;;26.33;24.03;;;;;;;;;;5058844;28;20831;-78
2023/05/25 13:27:25;;;;;;;26.33;24.43;;;;;;;;;;5058684;28;20570;-79
2023/05/25 13:29:52;;;;;;;25.27;23.60;;;;;;;;;;5058712;28;20495;-78
2023/05/25 13:32:19;;;;;;;25.73;24.13;;;;;;;;;;5060170;28;20425;-82
2023/05/25 13:34:47;;;;;;;24.80;23.10;;;;;;;;;;5060090;28;20448;-79
2023/05/25 13:37:15;;;;;;;25.40;23.50;;;;;;;;;;5061410;28;20455;-78
2023/05/25 13:39:42;;;;;;;26.23;24.43;;;;;;;;;;5061160;28;20469;-78
2023/05/25 13:42:09;;;;;;;25.80;23.90;;;;;;;;;;5061571;28;20435;-78
2023/05/25 13:44:36;;;;;;;24.93;23.23;;;;;;;;;;5060635;28;20473;-78
2023/05/25 13:47:03;;;;;;;24.93;23.07;;;;;;;;;;5060145;28;20452;-77
2023/05/25 13:49:30;;;;;;;26.03;24.07;;;;;;;;;;5060255;28;20470;-78
2023/05/25 13:51:57;;;;;;;24.03;22.27;;;;;;;;;;5060815;28;20448;-78
2023/05/25 13:54:26;;;;;;;24.30;22.80;;;;;;;;;;5061837;28;20469;-78
2023/05/25 13:56:53;;;;;;;26.80;24.83;;;;;;;;;;5059283;28;20437;-77
2023/05/25 13:59:20;;;;;;;26.27;24.43;;;;;;;;;;5059423;28;20871;-78
2023/05/25 14:01:47;;;;;;;26.07;24.17;;;;;;;;;;5060652;28;20461;-78
2023/05/25 14:04:14;;;;;;;25.10;23.40;;;;;;;;;;5059741;28;20432;-78
2023/05/25 14:06:42;;;;;;;25.70;24.03;;;;;;;;;;5059083;28;20535;-78
2023/05/25 14:09:09;;;;;;;26.03;24.00;;;;;;;;;;5060472;28;20489;-77
2023/05/25 14:11:37;;;;;;;25.53;23.23;;;;;;;;;;5059505;28;21058;-78
2023/05/25 14:14:06;;;;;;;24.17;22.67;;;;;;;;;;5059066;28;20457;-78
2023/05/25 14:16:33;;;;;;;25.63;23.83;;;;;;;;;;5058815;28;21034;-79
2023/05/25 14:19:00;;;;;;;25.70;23.90;;;;;;;;;;5062439;28;20470;-79